Mitchell, Iowa
Current Conditions -  °F | °C
As of 12:55 PM on Friday 21 Nov 2014 (Local Time) from KCCY Reporting Station
Clear Clear  
Wind Chill: 15°   Ceiling: Unl
Heat Index: 27°   Visibility: 10mi
Dew Point: 14°   Wind: 15mph
Humidity: 59%   Direction: 170°S
Pressure: 30.19"   Gusts: 24mph
Location:  43.2938°N, 92.8135°W
Report Text: KCCY 211855Z AUTO 17013G21KT 10SM CLR M03/M10 A3019 RMK AO2
Loading
Personal Weather Stations






























Interactive Weather Map New forecast layout! Learn more

10-Day Weather Forecast

Advertisements
Track Severe Weather on mobile